Time;durP1;ratioP1;P1;durP2;ratioP2;P2;SDS_P1;SDS_P2;PMS_P1;PMS_P2;Temp;Humidity;BMP_temperature;BMP_pressure;BME280_temperature;BME280_humidity;BME280_pressure;Samples;Min_cycle;Max_cycle;Signal;HPM_P1;HPM_P2
2023/04/15 00:00:36;;;;;;;9.30;4.32;;;7.10;99.90;;;;;;5108372;28;20048;-70
2023/04/15 00:03:01;;;;;;;8.45;4.38;;;7.10;99.90;;;;;;5091738;28;20067;-70
2023/04/15 00:05:31;;;;;;;9.07;4.38;;;7.10;99.90;;;;;;5101775;28;20518;-70
2023/04/15 00:07:57;;;;;;;10.48;4.15;;;7.10;99.90;;;;;;5095518;28;20031;-70
2023/04/15 00:10:24;;;;;;;10.05;4.60;;;7.00;99.90;;;;;;5095766;28;20437;-70
2023/04/15 00:12:50;;;;;;;10.88;4.40;;;7.00;99.90;;;;;;5088751;28;20040;-70
2023/04/15 00:15:15;;;;;;;8.43;4.95;;;7.00;99.90;;;;;;5091805;28;20051;-70
2023/04/15 00:17:41;;;;;;;9.00;4.30;;;7.00;99.90;;;;;;5092123;28;20063;-70
2023/04/15 00:20:07;;;;;;;8.75;3.92;;;6.90;99.90;;;;;;5091997;28;20119;-70
2023/04/15 00:22:33;;;;;;;9.32;4.70;;;6.90;99.90;;;;;;5094578;28;20506;-70
2023/04/15 00:24:58;;;;;;;11.60;4.57;;;6.90;99.90;;;;;;5110944;28;20043;-70
2023/04/15 00:27:24;;;;;;;10.63;4.65;;;6.90;99.90;;;;;;5110515;28;20027;-70
2023/04/15 00:29:50;;;;;;;8.80;4.47;;;6.90;99.90;;;;;;5114008;28;20081;-70
2023/04/15 00:32:15;;;;;;;10.63;4.50;;;6.80;99.90;;;;;;5097042;28;20039;-70
2023/04/15 00:34:41;;;;;;;9.50;4.38;;;6.80;99.90;;;;;;5097967;28;20046;-70
2023/04/15 00:37:08;;;;;;;8.27;3.85;;;6.80;99.90;;;;;;5096310;28;20078;-70
2023/04/15 00:39:34;;;;;;;10.63;4.68;;;6.80;99.90;;;;;;5096201;28;20094;-70
2023/04/15 00:42:00;;;;;;;10.15;4.55;;;6.70;99.90;;;;;;5095824;28;20040;-70
2023/04/15 00:44:26;;;;;;;11.35;4.85;;;6.70;99.90;;;;;;5114834;28;20096;-69
2023/04/15 00:46:51;;;;;;;9.52;4.18;;;6.70;99.90;;;;;;5099299;28;20035;-70
2023/04/15 00:49:18;;;;;;;10.57;4.88;;;6.60;99.90;;;;;;5098370;28;20039;-70
2023/04/15 00:51:43;;;;;;;8.88;4.53;;;6.50;99.90;;;;;;5098051;28;20392;-69
2023/04/15 00:54:10;;;;;;;10.90;5.47;;;6.50;99.90;;;;;;5081084;28;20048;-70
2023/04/15 00:56:37;;;;;;;11.25;5.15;;;6.40;99.90;;;;;;5078806;28;20130;-70
2023/04/15 00:59:06;;;;;;;11.68;5.20;;;6.40;99.90;;;;;;5095507;28;20043;-70
2023/04/15 01:01:35;;;;;;;10.27;4.90;;;6.40;99.90;;;;;;5103931;28;20476;-70
2023/04/15 01:04:01;;;;;;;10.13;4.50;;;6.40;99.90;;;;;;5099649;28;20496;-70
2023/04/15 01:06:27;;;;;;;10.43;4.50;;;6.40;99.90;;;;;;5095448;28;20036;-70
2023/04/15 01:08:57;;;;;;;12.75;5.68;;;6.40;99.90;;;;;;5112474;28;20055;-70
2023/04/15 01:11:23;;;;;;;10.50;4.93;;;6.40;99.90;;;;;;5095682;28;20071;-70
2023/04/15 01:13:50;;;;;;;11.95;5.55;;;6.30;99.90;;;;;;5081666;28;20079;-70
2023/04/15 01:16:16;;;;;;;11.77;5.50;;;6.30;99.90;;;;;;5095782;28;20499;-70
2023/04/15 01:18:42;;;;;;;11.55;5.38;;;6.30;99.90;;;;;;5113904;28;20032;-70
2023/04/15 01:21:08;;;;;;;9.95;5.60;;;6.30;99.90;;;;;;5085257;28;20650;-70
2023/04/15 01:23:38;;;;;;;9.68;5.20;;;6.30;99.90;;;;;;5103916;28;20101;-70
2023/04/15 01:26:06;;;;;;;11.02;5.32;;;6.30;99.90;;;;;;5109470;28;20031;-70
2023/04/15 01:28:31;;;;;;;10.68;5.25;;;6.30;99.90;;;;;;5116086;27;20051;-69
2023/04/15 01:31:13;;;;;;;12.25;5.47;;;6.30;99.90;;;;;;5115508;28;20035;-70
2023/04/15 01:33:40;;;;;;;11.50;4.90;;;6.30;99.90;;;;;;5099270;28;20040;-70
2023/04/15 01:36:09;;;;;;;12.38;5.25;;;6.30;99.90;;;;;;5095132;28;20297;-70
2023/04/15 01:38:36;;;;;;;9.70;5.93;;;6.30;99.90;;;;;;5108028;28;20055;-70
2023/04/15 01:41:06;;;;;;;11.38;6.65;;;6.20;99.90;;;;;;5113872;28;20381;-69
2023/04/15 01:43:33;;;;;;;9.88;5.45;;;6.20;99.90;;;;;;5111636;28;20050;-70
2023/04/15 01:45:58;;;;;;;12.23;5.75;;;6.20;99.90;;;;;;5132436;27;20388;-70
2023/04/15 01:48:24;;;;;;;11.10;5.72;;;6.20;99.90;;;;;;5086428;28;20036;-70
2023/04/15 01:50:52;;;;;;;12.90;5.97;;;6.20;99.90;;;;;;5116895;27;20036;-69
2023/04/15 01:53:17;;;;;;;11.63;5.90;;;6.10;99.90;;;;;;5102236;28;20054;-70
2023/04/15 01:55:43;;;;;;;10.75;5.90;;;6.10;99.90;;;;;;5113904;28;20048;-70
2023/04/15 01:58:09;;;;;;;9.43;5.43;;;6.00;99.90;;;;;;5085946;28;20038;-69
2023/04/15 02:00:34;;;;;;;12.13;6.05;;;6.00;99.90;;;;;;5111473;28;20122;-70
2023/04/15 02:03:00;;;;;;;10.27;5.90;;;5.90;99.90;;;;;;5131916;27;20451;-70
2023/04/15 02:05:25;;;;;;;11.15;6.10;;;5.90;99.90;;;;;;5106391;27;20118;-70
2023/04/15 02:07:51;;;;;;;12.70;6.55;;;5.90;99.90;;;;;;5098078;28;20044;-70
2023/04/15 02:10:17;;;;;;;10.88;6.15;;;5.90;99.90;;;;;;5112613;27;20475;-70
2023/04/15 02:12:42;;;;;;;12.38;5.88;;;5.80;99.90;;;;;;5097576;28;20085;-69
2023/04/15 02:15:09;;;;;;;14.05;6.38;;;5.80;99.90;;;;;;5096451;28;20490;-69
2023/04/15 02:17:36;;;;;;;10.68;5.78;;;5.70;99.90;;;;;;5114474;28;20076;-69
2023/04/15 02:20:03;;;;;;;11.45;6.22;;;5.70;99.90;;;;;;5116164;27;20032;-69
2023/04/15 02:22:29;;;;;;;11.00;6.10;;;5.60;99.90;;;;;;5110459;28;20130;-69
2023/04/15 02:24:54;;;;;;;12.02;6.32;;;5.60;99.90;;;;;;5090703;28;20114;-70
2023/04/15 02:27:21;;;;;;;10.52;6.03;;;5.60;99.90;;;;;;5114334;28;20031;-69
2023/04/15 02:29:47;;;;;;;13.55;6.80;;;5.60;99.90;;;;;;5096230;28;20047;-70
2023/04/15 02:32:12;;;;;;;12.70;6.63;;;5.60;99.90;;;;;;5112466;28;20039;-70
2023/04/15 02:34:40;;;;;;;10.88;6.20;;;5.60;99.90;;;;;;5097219;28;20347;-70
2023/04/15 02:37:06;;;;;;;11.27;6.32;;;5.60;99.90;;;;;;5093343;28;20417;-70
2023/04/15 02:39:32;;;;;;;12.15;6.75;;;5.50;99.90;;;;;;5111695;28;20059;-70
2023/04/15 02:41:59;;;;;;;10.20;6.38;;;5.50;99.90;;;;;;5095200;28;20031;-70
2023/04/15 02:44:26;;;;;;;10.82;6.60;;;5.50;99.90;;;;;;5096842;28;20035;-70
2023/04/15 02:46:53;;;;;;;11.60;6.50;;;5.40;99.90;;;;;;5111973;27;20372;-70
2023/04/15 02:49:19;;;;;;;10.93;6.28;;;5.50;99.90;;;;;;5095652;28;20040;-69
2023/04/15 02:51:48;;;;;;;10.40;6.15;;;5.50;99.90;;;;;;5079497;28;20444;-69
2023/04/15 02:54:24;;;;;;;12.85;6.40;;;5.40;99.90;;;;;;5111763;27;20056;-69
2023/04/15 02:56:54;;;;;;;11.40;6.40;;;5.40;99.90;;;;;;5096506;28;20035;-70
2023/04/15 02:59:19;;;;;;;10.05;5.90;;;5.40;99.90;;;;;;5095281;28;20502;-70
2023/04/15 03:01:45;;;;;;;11.77;6.82;;;5.40;99.90;;;;;;5111454;28;20050;-70
2023/04/15 03:04:10;;;;;;;10.85;6.75;;;5.50;99.90;;;;;;5113653;28;20127;-70
2023/04/15 03:06:36;;;;;;;11.85;6.63;;;5.50;99.90;;;;;;5079191;28;20040;-70
2023/04/15 03:09:02;;;;;;;13.48;6.80;;;5.50;99.90;;;;;;5098065;28;20036;-69
2023/04/15 03:11:32;;;;;;;10.75;6.63;;;5.50;99.90;;;;;;5076682;28;20096;-70
2023/04/15 03:13:57;;;;;;;11.27;6.72;;;5.50;99.90;;;;;;5107335;28;20047;-69
2023/04/15 03:16:24;;;;;;;12.80;7.45;;;5.50;99.90;;;;;;5112448;28;20039;-70
2023/04/15 03:18:50;;;;;;;10.35;6.53;;;5.50;99.90;;;;;;5097371;28;20036;-70
2023/04/15 03:21:15;;;;;;;11.90;6.95;;;5.50;99.90;;;;;;5103818;28;20039;-70
2023/04/15 03:23:41;;;;;;;11.48;7.00;;;5.50;99.90;;;;;;5096908;28;20078;-69
2023/04/15 03:26:07;;;;;;;10.30;6.43;;;5.40;99.90;;;;;;5095384;27;20484;-69
2023/04/15 03:28:32;;;;;;;10.48;6.40;;;5.40;99.90;;;;;;5111642;27;20047;-70
2023/04/15 03:30:59;;;;;;;11.80;7.47;;;5.40;99.90;;;;;;5096172;28;20552;-70
2023/04/15 03:33:24;;;;;;;11.73;6.32;;;5.40;99.90;;;;;;5111061;28;20407;-70
2023/04/15 03:35:51;;;;;;;11.80;7.10;;;5.40;99.90;;;;;;5112971;28;20040;-70
2023/04/15 03:38:17;;;;;;;12.68;6.80;;;5.40;99.90;;;;;;5086008;28;20040;-70
2023/04/15 03:40:45;;;;;;;11.27;6.93;;;5.40;99.90;;;;;;5100297;28;20044;-70
2023/04/15 03:43:11;;;;;;;11.38;7.22;;;5.40;99.90;;;;;;5087784;28;20039;-70
2023/04/15 03:45:36;;;;;;;13.40;7.20;;;5.40;99.90;;;;;;5112749;28;20556;-70
2023/04/15 03:48:02;;;;;;;13.48;7.55;;;5.30;99.90;;;;;;5111663;28;20070;-70
2023/04/15 03:50:28;;;;;;;11.90;8.00;;;5.40;99.90;;;;;;5094704;28;20062;-70
2023/04/15 03:52:53;;;;;;;11.95;7.25;;;5.30;99.90;;;;;;5095634;28;20040;-70
2023/04/15 03:55:19;;;;;;;11.88;7.55;;;5.20;99.90;;;;;;5103875;28;20051;-70
2023/04/15 03:57:45;;;;;;;11.75;7.32;;;5.20;99.90;;;;;;5090093;28;20067;-70
2023/04/15 04:00:11;;;;;;;12.20;7.25;;;5.20;99.90;;;;;;5097198;28;20036;-70
2023/04/15 04:02:37;;;;;;;10.95;6.50;;;5.20;99.90;;;;;;5095400;27;20028;-70
2023/04/15 04:05:03;;;;;;;12.95;7.32;;;5.20;99.90;;;;;;5094028;28;20084;-69
2023/04/15 04:07:28;;;;;;;11.65;6.65;;;5.20;99.90;;;;;;5092005;28;20471;-70
2023/04/15 04:09:56;;;;;;;11.15;6.80;;;5.20;99.90;;;;;;5087154;28;20484;-70
2023/04/15 04:12:22;;;;;;;10.23;6.45;;;5.20;99.90;;;;;;5099874;28;20043;-70
2023/04/15 04:14:47;;;;;;;11.77;7.20;;;5.10;99.90;;;;;;5112683;28;20536;-70
2023/04/15 04:17:13;;;;;;;11.82;7.03;;;5.10;99.90;;;;;;5089770;28;20066;-70
2023/04/15 04:19:39;;;;;;;12.10;7.68;;;5.10;99.90;;;;;;5111305;28;20115;-70
2023/04/15 04:22:05;;;;;;;11.98;7.80;;;5.00;99.90;;;;;;5090037;28;20043;-70
2023/04/15 04:24:30;;;;;;;12.07;7.50;;;5.00;99.90;;;;;;5109422;28;20035;-70
2023/04/15 04:26:56;;;;;;;10.45;6.70;;;5.00;99.90;;;;;;5082830;28;20038;-70
2023/04/15 04:29:22;;;;;;;12.75;8.25;;;4.90;99.90;;;;;;5091034;28;20028;-69
2023/04/15 04:31:48;;;;;;;14.77;7.20;;;4.90;99.90;;;;;;5091213;28;20081;-70
2023/04/15 04:34:14;;;;;;;11.10;6.65;;;4.80;99.90;;;;;;5091767;28;20050;-70
2023/04/15 04:36:40;;;;;;;12.90;8.43;;;4.90;99.90;;;;;;5092209;28;20028;-70
2023/04/15 04:39:06;;;;;;;12.65;8.60;;;4.90;99.90;;;;;;5098172;28;20551;-69
2023/04/15 04:41:32;;;;;;;14.80;9.05;;;4.80;99.90;;;;;;5090069;28;20040;-70
2023/04/15 04:43:58;;;;;;;12.80;8.07;;;4.80;99.90;;;;;;5112456;28;20468;-70
2023/04/15 04:46:23;;;;;;;15.77;8.48;;;4.80;99.90;;;;;;5094927;28;20076;-69
2023/04/15 04:48:49;;;;;;;12.32;7.90;;;4.80;99.90;;;;;;5112077;28;20035;-69
2023/04/15 04:51:15;;;;;;;11.73;7.50;;;4.80;99.90;;;;;;5084230;28;20051;-70
2023/04/15 04:53:42;;;;;;;13.98;8.55;;;4.80;99.90;;;;;;5092791;28;20054;-70
2023/04/15 04:56:07;;;;;;;15.77;9.30;;;4.80;99.90;;;;;;5104819;28;20036;-70
2023/04/15 04:58:33;;;;;;;15.88;9.80;;;4.70;99.90;;;;;;5096804;28;20039;-69
2023/04/15 05:00:58;;;;;;;15.48;8.57;;;4.70;99.90;;;;;;5091057;28;20377;-70
2023/04/15 05:03:24;;;;;;;13.32;8.48;;;4.80;99.90;;;;;;5099467;28;20032;-70
2023/04/15 05:05:50;;;;;;;16.13;10.30;;;4.80;99.90;;;;;;5111945;28;20083;-70
2023/04/15 05:08:16;;;;;;;14.93;9.60;;;4.80;99.90;;;;;;5100957;28;20385;-70
2023/04/15 05:10:41;;;;;;;13.48;9.13;;;4.80;99.90;;;;;;5088892;28;20038;-70
2023/04/15 05:13:07;;;;;;;14.52;8.85;;;4.70;99.90;;;;;;5092986;28;20442;-70
2023/04/15 05:15:33;;;;;;;13.57;8.48;;;4.70;99.90;;;;;;5106064;28;20093;-70
2023/04/15 05:17:59;;;;;;;13.93;8.18;;;4.70;99.90;;;;;;5098777;28;20040;-70
2023/04/15 05:20:25;;;;;;;12.88;8.60;;;4.70;99.90;;;;;;5118294;27;20040;-70
2023/04/15 05:22:50;;;;;;;14.23;9.27;;;4.70;99.90;;;;;;5100328;28;20038;-70
2023/04/15 05:25:16;;;;;;;14.30;9.10;;;4.70;99.90;;;;;;5102288;28;20040;-70
2023/04/15 05:27:42;;;;;;;14.23;9.57;;;4.70;99.90;;;;;;5115438;28;20074;-70
2023/04/15 05:30:08;;;;;;;12.88;8.75;;;4.70;99.90;;;;;;5114199;28;20036;-70
2023/04/15 05:32:34;;;;;;;13.57;8.90;;;4.70;99.90;;;;;;5115439;28;20088;-69
2023/04/15 05:34:59;;;;;;;14.68;10.05;;;4.80;99.90;;;;;;5093627;28;20118;-70
2023/04/15 05:37:25;;;;;;;14.63;8.70;;;4.80;99.90;;;;;;5094769;28;20075;-70
2023/04/15 05:39:51;;;;;;;15.35;9.90;;;4.90;99.90;;;;;;5094840;28;20076;-70
2023/04/15 05:42:16;;;;;;;15.07;9.65;;;4.90;99.90;;;;;;5099117;28;20036;-70
2023/04/15 05:44:42;;;;;;;14.55;8.18;;;5.00;99.90;;;;;;5098199;28;20088;-70
2023/04/15 05:47:09;;;;;;;13.50;8.15;;;5.00;99.90;;;;;;5097136;28;20040;-70
2023/04/15 05:49:35;;;;;;;13.10;8.50;;;5.10;99.90;;;;;;5113077;28;20384;-70
2023/04/15 05:52:00;;;;;;;14.05;9.07;;;5.10;99.90;;;;;;5111309;28;20044;-70
2023/04/15 05:54:26;;;;;;;13.45;8.80;;;5.20;99.90;;;;;;5097885;28;20153;-69
2023/04/15 05:56:52;;;;;;;14.70;9.30;;;5.20;99.90;;;;;;5083628;28;20058;-69
2023/04/15 05:59:18;;;;;;;16.75;10.35;;;5.30;99.90;;;;;;5094039;28;20036;-70
2023/04/15 06:01:44;;;;;;;12.07;7.15;;;5.30;99.90;;;;;;5094849;28;20028;-75
2023/04/15 06:04:10;;;;;;;22.48;9.48;;;5.40;99.90;;;;;;5094537;28;20040;-71
2023/04/15 06:06:36;;;;;;;20.48;11.27;;;5.60;99.90;;;;;;5106094;28;20039;-71
2023/04/15 06:09:01;;;;;;;17.23;9.93;;;5.70;99.90;;;;;;5096797;28;20039;-71
2023/04/15 06:11:27;;;;;;;15.82;10.48;;;5.80;99.90;;;;;;5097730;28;20035;-71
2023/04/15 06:13:52;;;;;;;19.33;10.35;;;5.80;99.90;;;;;;5087033;28;20031;-73
2023/04/15 06:16:18;;;;;;;18.20;12.27;;;5.90;99.90;;;;;;5077230;28;20406;-70
2023/04/15 06:18:44;;;;;;;15.57;10.55;;;5.90;99.90;;;;;;5094027;28;20040;-70
2023/04/15 06:21:10;;;;;;;19.77;11.48;;;5.90;99.90;;;;;;5100830;28;20114;-70
2023/04/15 06:23:36;;;;;;;18.15;11.68;;;6.00;99.90;;;;;;5114434;28;20514;-70
2023/04/15 06:26:02;;;;;;;20.25;12.38;;;6.00;99.90;;;;;;5114413;28;20039;-70
2023/04/15 06:28:28;;;;;;;16.67;11.30;;;6.10;99.90;;;;;;5113620;28;20044;-70
2023/04/15 06:30:54;;;;;;;19.33;12.27;;;6.20;99.90;;;;;;5114300;28;20126;-70
2023/04/15 06:33:20;;;;;;;16.02;10.10;;;6.30;99.90;;;;;;5097307;28;20071;-70
2023/04/15 06:35:46;;;;;;;16.52;10.57;;;6.30;99.90;;;;;;5131345;27;20043;-70
2023/04/15 06:38:11;;;;;;;16.38;10.55;;;6.40;99.90;;;;;;5114286;28;20407;-70
2023/04/15 06:40:37;;;;;;;16.85;11.10;;;6.50;99.90;;;;;;5131156;27;20051;-70
2023/04/15 06:43:03;;;;;;;18.70;10.85;;;6.60;99.90;;;;;;5097098;28;20074;-70
2023/04/15 06:45:30;;;;;;;17.30;10.45;;;6.70;99.90;;;;;;5114066;28;20032;-70
2023/04/15 06:47:55;;;;;;;16.73;9.52;;;6.80;99.90;;;;;;5113883;28;20073;-70
2023/04/15 06:50:21;;;;;;;17.95;10.80;;;6.90;99.90;;;;;;5095671;28;20126;-70
2023/04/15 06:52:46;;;;;;;16.30;10.25;;;7.00;99.90;;;;;;5113676;28;20408;-70
2023/04/15 06:55:12;;;;;;;17.35;10.40;;;7.00;99.90;;;;;;5096926;28;20047;-70
2023/04/15 06:57:38;;;;;;;17.35;9.38;;;7.10;99.90;;;;;;5113694;28;20040;-70
2023/04/15 07:00:04;;;;;;;14.85;9.20;;;7.20;99.90;;;;;;5096711;28;20041;-70
2023/04/15 07:02:30;;;;;;;17.63;9.77;;;7.20;99.90;;;;;;5096724;28;20040;-70
2023/04/15 07:04:55;;;;;;;14.60;8.68;;;7.30;99.90;;;;;;5111524;28;20089;-70
2023/04/15 07:07:21;;;;;;;14.82;9.35;;;7.50;99.90;;;;;;5113604;28;20123;-70
2023/04/15 07:09:47;;;;;;;15.00;9.70;;;7.50;99.90;;;;;;5096477;28;20122;-70
2023/04/15 07:12:12;;;;;;;14.30;9.20;;;7.60;99.90;;;;;;5096513;28;20043;-70
2023/04/15 07:14:38;;;;;;;14.57;8.05;;;7.70;99.90;;;;;;5096427;28;20051;-70
2023/04/15 07:17:03;;;;;;;15.52;8.60;;;7.80;99.90;;;;;;5113637;28;20099;-70
2023/04/15 07:19:29;;;;;;;18.75;10.30;;;7.80;99.90;;;;;;5096078;28;20050;-70
2023/04/15 07:21:54;;;;;;;14.10;7.43;;;7.90;99.90;;;;;;5096365;28;20466;-70
2023/04/15 07:24:22;;;;;;;12.57;7.65;;;7.90;99.90;;;;;;5095250;28;20032;-70
2023/04/15 07:26:47;;;;;;;13.05;7.78;;;8.10;99.90;;;;;;5096207;28;20122;-70
2023/04/15 07:29:13;;;;;;;15.70;8.50;;;8.10;99.90;;;;;;5096062;28;20096;-71
2023/04/15 07:31:41;;;;;;;14.80;8.15;;;8.20;99.90;;;;;;5096138;28;20065;-70
2023/04/15 07:34:06;;;;;;;13.05;7.93;;;8.20;99.90;;;;;;5096321;28;20403;-70
2023/04/15 07:36:32;;;;;;;14.38;7.82;;;8.30;99.90;;;;;;5113360;28;20044;-70
2023/04/15 07:38:57;;;;;;;12.88;7.82;;;8.30;99.90;;;;;;5113181;28;20039;-70
2023/04/15 07:41:23;;;;;;;14.45;8.32;;;8.40;99.90;;;;;;5112924;28;20039;-70
2023/04/15 07:43:48;;;;;;;15.18;7.10;;;8.40;99.90;;;;;;5112907;28;20035;-70
2023/04/15 07:46:14;;;;;;;12.35;7.10;;;8.50;99.90;;;;;;5096182;28;20035;-70
2023/04/15 07:48:41;;;;;;;13.55;7.20;;;8.40;99.90;;;;;;5094373;28;20039;-70
2023/04/15 07:51:07;;;;;;;14.45;8.13;;;8.50;99.90;;;;;;5113093;28;20051;-70
2023/04/15 07:53:33;;;;;;;14.15;8.25;;;8.50;99.90;;;;;;5112558;28;20471;-70
2023/04/15 07:55:58;;;;;;;12.02;7.05;;;8.50;99.90;;;;;;5095846;28;20042;-70
2023/04/15 07:58:24;;;;;;;14.18;6.90;;;8.50;99.90;;;;;;5095630;28;20546;-70
2023/04/15 08:00:50;;;;;;;12.43;6.53;;;8.60;99.90;;;;;;5095641;28;20080;-70
2023/04/15 08:03:16;;;;;;;12.60;6.55;;;8.60;99.90;;;;;;5094751;28;20032;-70
2023/04/15 08:05:41;;;;;;;11.30;5.88;;;8.60;99.90;;;;;;5095852;28;20036;-70
2023/04/15 08:08:07;;;;;;;11.20;5.50;;;8.60;99.90;;;;;;5112518;28;20031;-70
2023/04/15 08:10:33;;;;;;;11.23;6.55;;;8.80;99.90;;;;;;5112524;28;20403;-70
2023/04/15 08:12:59;;;;;;;11.70;5.63;;;8.80;99.90;;;;;;5095627;28;20434;-70
2023/04/15 08:15:25;;;;;;;12.13;6.25;;;8.80;99.90;;;;;;5095477;28;20106;-70
2023/04/15 08:17:50;;;;;;;10.55;5.30;;;8.90;99.90;;;;;;5094385;28;20437;-70
2023/04/15 08:20:16;;;;;;;10.02;5.93;;;9.00;99.90;;;;;;5112267;28;20040;-70
2023/04/15 08:22:42;;;;;;;8.65;4.75;;;9.00;99.90;;;;;;5112376;28;20403;-70
2023/04/15 08:25:08;;;;;;;9.13;4.72;;;9.00;99.90;;;;;;5112333;28;20506;-70
2023/04/15 08:27:33;;;;;;;11.45;5.13;;;9.10;99.90;;;;;;5095604;28;20391;-70
2023/04/15 08:29:59;;;;;;;9.75;5.00;;;9.10;99.90;;;;;;5095434;28;20039;-70
2023/04/15 08:32:26;;;;;;;7.75;4.70;;;9.10;99.90;;;;;;5095260;28;20073;-70
2023/04/15 08:34:52;;;;;;;10.32;4.97;;;9.10;99.90;;;;;;5112547;28;20083;-70
2023/04/15 08:37:17;;;;;;;8.93;3.95;;;9.00;99.90;;;;;;5095403;28;20044;-71
2023/04/15 08:39:44;;;;;;;8.10;4.43;;;9.00;99.90;;;;;;5095101;28;20031;-71
2023/04/15 08:42:17;;;;;;;10.85;4.97;;;9.00;99.90;;;;;;5112290;28;20043;-71
2023/04/15 08:44:43;;;;;;;9.93;4.88;;;9.00;99.90;;;;;;5112177;28;20040;-71
2023/04/15 08:47:13;;;;;;;9.77;4.90;;;8.90;99.90;;;;;;5112174;28;20040;-70
2023/04/15 08:49:40;;;;;;;8.57;4.57;;;8.90;99.90;;;;;;5093792;28;20499;-70
2023/04/15 08:52:08;;;;;;;10.38;4.20;;;8.90;99.90;;;;;;5099277;28;20108;-70
2023/04/15 08:54:34;;;;;;;9.40;4.25;;;9.00;99.90;;;;;;5099038;28;20128;-70
2023/04/15 08:57:01;;;;;;;7.85;4.15;;;9.00;99.90;;;;;;5099136;28;20531;-71
2023/04/15 08:59:28;;;;;;;6.78;3.53;;;9.00;99.90;;;;;;5098308;28;20074;-71
2023/04/15 09:01:56;;;;;;;9.02;3.55;;;9.00;99.90;;;;;;5096057;28;20039;-70
2023/04/15 09:04:21;;;;;;;8.60;4.03;;;9.00;99.90;;;;;;5096232;28;20093;-71
2023/04/15 09:06:47;;;;;;;7.68;3.58;;;8.90;99.90;;;;;;5095672;28;20407;-71
2023/04/15 09:09:15;;;;;;;9.75;3.67;;;8.90;99.90;;;;;;5095728;28;20035;-71
2023/04/15 09:11:41;;;;;;;7.07;3.22;;;8.90;99.90;;;;;;5095523;28;20047;-68
2023/04/15 09:14:07;;;;;;;6.70;3.22;;;9.00;99.90;;;;;;5095407;28;20479;-68
2023/04/15 09:17:03;;;;;;;6.65;2.65;;;8.90;99.90;;;;;;5095382;28;20082;-68
2023/04/15 09:19:29;;;;;;;5.20;2.35;;;9.00;99.90;;;;;;5095547;28;20068;-68
2023/04/15 09:21:57;;;;;;;4.63;1.90;;;9.00;99.90;;;;;;5078447;28;20089;-68
2023/04/15 09:24:23;;;;;;;6.13;2.15;;;9.20;99.90;;;;;;5078289;28;20032;-68
2023/04/15 09:26:53;;;;;;;3.92;1.95;;;9.30;99.90;;;;;;5095527;28;20090;-68
2023/04/15 09:29:19;;;;;;;4.00;1.77;;;9.30;99.90;;;;;;5078170;28;20036;-69
2023/04/15 09:31:45;;;;;;;3.75;1.67;;;9.40;99.90;;;;;;5095255;28;20068;-68
2023/04/15 09:34:11;;;;;;;3.97;1.55;;;9.50;99.90;;;;;;5078086;28;20123;-68
2023/04/15 09:36:46;;;;;;;4.57;1.98;;;9.40;99.90;;;;;;5114694;28;20070;-68
2023/04/15 09:39:12;;;;;;;4.63;2.08;;;9.40;99.90;;;;;;5098367;28;20050;-68
2023/04/15 09:41:38;;;;;;;3.92;1.70;;;9.50;99.90;;;;;;5115183;28;20071;-68
2023/04/15 09:44:04;;;;;;;5.85;1.92;;;9.50;99.90;;;;;;5098234;28;20455;-68
2023/04/15 09:46:43;;;;;;;5.75;2.00;;;9.40;99.90;;;;;;5132534;27;20514;-69
2023/04/15 09:49:10;;;;;;;3.67;1.60;;;9.40;99.90;;;;;;5098178;28;20039;-69
2023/04/15 09:51:36;;;;;;;6.47;1.98;;;9.40;99.90;;;;;;5114926;28;20035;-69
2023/04/15 09:54:02;;;;;;;4.43;1.90;;;9.30;99.90;;;;;;5098087;28;20109;-69
2023/04/15 09:56:37;;;;;;;4.25;1.73;;;9.40;99.90;;;;;;5096855;28;20040;-69
2023/04/15 09:59:04;;;;;;;4.43;2.03;;;9.50;99.90;;;;;;5097991;28;20080;-69
2023/04/15 10:01:30;;;;;;;4.63;1.83;;;9.50;99.90;;;;;;5114133;28;20119;-69
2023/04/15 10:03:57;;;;;;;5.40;2.40;;;9.40;99.90;;;;;;5114393;28;20036;-69
2023/04/15 10:06:25;;;;;;;3.35;1.88;;;9.40;99.90;;;;;;5114844;28;20476;-69
2023/04/15 10:08:52;;;;;;;5.28;2.00;;;9.50;99.90;;;;;;5115076;28;20118;-69
2023/04/15 10:11:20;;;;;;;5.35;2.05;;;9.50;99.90;;;;;;5103603;28;20048;-69
2023/04/15 10:13:47;;;;;;;4.15;1.80;;;9.50;99.90;;;;;;5094264;28;20051;-69
2023/04/15 10:16:15;;;;;;;5.90;2.47;;;9.50;99.90;;;;;;5094268;28;20044;-69
2023/04/15 10:18:46;;;;;;;3.28;1.85;;;9.50;99.90;;;;;;5094501;28;20392;-69
2023/04/15 10:21:17;;;;;;;5.45;1.80;;;9.60;99.90;;;;;;5094232;28;20535;-69
2023/04/15 10:23:44;;;;;;;5.95;2.00;;;9.60;99.90;;;;;;5094128;28;20519;-70
2023/04/15 10:26:11;;;;;;;4.53;2.10;;;9.60;99.90;;;;;;5077204;28;20496;-70
2023/04/15 10:28:37;;;;;;;5.05;1.80;;;9.50;99.90;;;;;;5077184;28;20123;-70
2023/04/15 10:31:04;;;;;;;7.55;2.10;;;9.50;99.90;;;;;;5093793;28;20118;-70
2023/04/15 10:33:30;;;;;;;5.40;1.85;;;9.50;99.90;;;;;;5077000;28;20070;-70
2023/04/15 10:35:57;;;;;;;3.90;1.70;;;9.50;99.90;;;;;;5077032;28;20040;-70
2023/04/15 10:38:38;;;;;;;3.90;1.50;;;9.50;99.90;;;;;;5093827;28;20488;-70
2023/04/15 10:41:25;;;;;;;4.07;1.70;;;9.50;99.90;;;;;;5093777;28;20544;-69
2023/04/15 10:44:01;;;;;;;4.78;1.85;;;9.50;99.90;;;;;;5093697;28;20568;-70
2023/04/15 10:46:46;;;;;;;4.80;1.70;;;9.50;99.90;;;;;;5093766;28;20032;-70
2023/04/15 10:49:13;;;;;;;3.40;1.50;;;9.50;99.90;;;;;;5093989;28;20044;-70
2023/04/15 10:51:43;;;;;;;3.08;1.50;;;9.50;99.90;;;;;;5084005;28;20040;-70
2023/04/15 10:54:24;;;;;;;7.78;2.10;;;9.60;99.90;;;;;;5113804;28;20500;-69
2023/04/15 10:57:00;;;;;;;7.35;2.10;;;9.50;99.90;;;;;;5096888;28;20055;-69
2023/04/15 10:59:28;;;;;;;4.32;1.85;;;9.50;99.90;;;;;;5096730;28;20050;-70
2023/04/15 11:02:05;;;;;;;8.20;2.30;;;9.60;99.90;;;;;;5096630;28;20525;-70
2023/04/15 11:04:57;;;;;;;6.80;1.95;;;9.60;99.90;;;;;;5113664;28;20114;-69
2023/04/15 11:07:47;;;;;;;6.60;2.22;;;9.60;99.90;;;;;;5109894;28;20047;-70
2023/04/15 11:10:16;;;;;;;8.93;2.28;;;9.60;99.90;;;;;;5096888;28;20130;-70
2023/04/15 11:12:42;;;;;;;6.18;2.20;;;9.60;99.90;;;;;;5096236;28;20122;-70
2023/04/15 11:15:35;;;;;;;5.72;2.00;;;9.60;99.90;;;;;;5096605;28;20191;-70
2023/04/15 11:18:21;;;;;;;6.70;1.98;;;9.60;99.90;;;;;;5112616;28;20047;-70
2023/04/15 11:20:49;;;;;;;4.10;1.80;;;9.70;99.90;;;;;;5113447;28;20606;-70
2023/04/15 11:23:17;;;;;;;5.43;2.30;;;9.80;99.90;;;;;;5113354;28;20046;-70
2023/04/15 11:25:43;;;;;;;6.22;2.20;;;9.70;99.90;;;;;;5096267;28;20067;-70
2023/04/15 11:28:10;;;;;;;4.80;2.08;;;9.80;99.90;;;;;;5093327;28;20028;-70
2023/04/15 11:30:37;;;;;;;7.65;2.53;;;9.70;99.90;;;;;;5112969;28;20117;-70
2023/04/15 11:33:09;;;;;;;6.68;2.13;;;9.70;99.90;;;;;;5113205;28;20046;-69
2023/04/15 11:35:35;;;;;;;6.75;2.53;;;9.70;99.90;;;;;;5095994;28;20039;-69
2023/04/15 11:38:07;;;;;;;7.40;3.38;;;9.60;99.90;;;;;;5113332;28;20448;-70
2023/04/15 11:40:34;;;;;;;6.70;2.08;;;9.70;99.90;;;;;;5095978;28;20118;-69
2023/04/15 11:43:19;;;;;;;10.63;2.40;;;9.80;99.90;;;;;;5113184;28;20463;-69
2023/04/15 11:46:00;;;;;;;5.80;1.98;;;9.80;99.90;;;;;;5094817;28;20092;-69
2023/04/15 11:48:31;;;;;;;5.25;1.48;;;9.80;99.90;;;;;;5112929;28;20043;-69
2023/04/15 11:51:07;;;;;;;8.35;2.03;;;9.80;99.90;;;;;;5112712;28;20043;-69
2023/04/15 11:53:37;;;;;;;5.47;1.90;;;9.90;99.90;;;;;;5087139;28;20104;-69
2023/04/15 11:56:03;;;;;;;8.70;1.88;;;9.90;99.90;;;;;;5109986;28;20114;-75
2023/04/15 11:58:29;;;;;;;15.75;2.63;;;9.90;99.90;;;;;;5094030;28;20450;-70
2023/04/15 12:00:57;;;;;;;7.15;1.80;;;9.90;99.90;;;;;;5109464;27;20036;-69
2023/04/15 12:03:23;;;;;;;7.45;1.92;;;9.90;99.90;;;;;;5110964;28;20035;-70
2023/04/15 12:06:21;;;;;;;6.43;1.80;;;10.00;99.90;;;;;;5095716;28;20058;-69
2023/04/15 12:09:05;;;;;;;6.63;1.80;;;10.10;99.90;;;;;;5095835;28;20031;-69
2023/04/15 12:11:36;;;;;;;6.40;2.05;;;10.10;99.90;;;;;;5128087;27;20046;-70
2023/04/15 12:14:15;;;;;;;5.97;2.00;;;10.20;99.90;;;;;;5094997;28;20385;-70
2023/04/15 12:16:46;;;;;;;9.38;1.98;;;10.20;99.90;;;;;;5112503;28;20507;-69
2023/04/15 12:19:24;;;;;;;8.65;1.85;;;10.20;99.90;;;;;;5105925;28;20039;-70
2023/04/15 12:21:51;;;;;;;8.30;2.03;;;10.20;99.90;;;;;;5095660;28;20113;-70
2023/04/15 12:24:20;;;;;;;10.10;2.00;;;10.20;99.90;;;;;;5112339;28;20047;-70
2023/04/15 12:26:55;;;;;;;8.05;1.67;;;10.20;99.90;;;;;;5085225;28;20039;-70
2023/04/15 12:29:27;;;;;;;4.03;1.30;;;10.20;99.90;;;;;;5111389;28;20399;-70
2023/04/15 12:31:54;;;;;;;5.93;1.90;;;10.20;99.90;;;;;;5095391;28;20031;-70
2023/04/15 12:34:30;;;;;;;6.97;2.45;;;10.20;99.90;;;;;;5095401;28;20084;-70
2023/04/15 12:36:58;;;;;;;7.05;1.60;;;10.10;99.90;;;;;;5091028;28;20036;-70
2023/04/15 12:39:25;;;;;;;8.15;2.75;;;10.10;99.90;;;;;;5106286;28;20028;-70
2023/04/15 12:41:51;;;;;;;6.82;1.65;;;10.20;99.90;;;;;;5112434;28;20040;-70
2023/04/15 12:44:17;;;;;;;8.70;1.77;;;10.10;99.90;;;;;;5110733;28;20047;-70
2023/04/15 12:46:43;;;;;;;6.25;1.60;;;10.10;99.90;;;;;;5110463;28;20036;-70
2023/04/15 12:49:08;;;;;;;6.88;1.80;;;10.10;99.90;;;;;;5088299;28;20032;-70
2023/04/15 12:51:34;;;;;;;7.00;1.77;;;10.00;99.90;;;;;;5095117;28;20058;-70